Time;durP1;ratioP1;P1;durP2;ratioP2;P2;SDS_P1;SDS_P2;PMS_P1;PMS_P2;Temp;Humidity;BMP_temperature;BMP_pressure;BME280_temperature;BME280_humidity;BME280_pressure;Samples;Min_cycle;Max_cycle;Signal;HPM_P1;HPM_P2
2023/03/18 00:02:03;;;;;;;29.00;15.20;;;;;;;3.31;51.80;100259.57;126028;1300;638069;-70
2023/03/18 00:06:06;;;;;;;24.20;14.30;;;;;;;3.25;52.09;100257.58;127667;1286;128963;-72
2023/03/18 00:22:38;;;;;;;31.00;16.10;;;;;;;3.17;52.27;100237.95;125982;1298;636179;-69
2023/03/18 00:26:40;;;;;;;28.60;15.40;;;;;;;3.11;52.46;100234.01;129294;1286;130724;-71
2023/03/18 00:30:39;;;;;;;;;;;;;;;;;;;;;
2023/03/18 00:34:40;;;;;;;18.70;11.00;;;;;;;3.03;52.61;100227.29;121015;1313;5440535;-72
2023/03/18 00:38:56;;;;;;;24.30;14.30;;;;;;;2.98;52.60;100225.61;124063;1319;115137;-73
2023/03/18 00:42:37;;;;;;;;;;;;;;;;;;;;;
2023/03/18 00:55:09;;;;;;;27.20;15.60;;;;;;;2.69;53.02;100226.34;128580;1278;129111;-72
2023/03/18 00:59:10;;;;;;;25.60;14.00;;;;;;;2.63;53.09;100225.59;127728;1286;115157;-71
2023/03/18 01:03:14;;;;;;;26.20;14.00;;;;;;;2.58;53.31;100228.29;122399;1297;5416162;-71
2023/03/18 01:07:15;;;;;;;21.00;11.80;;;;;;;2.54;53.30;100228.38;125684;1302;114876;-72
2023/03/18 01:11:15;;;;;;;24.20;14.10;;;;;;;2.50;53.71;100226.14;125233;1327;114903;-71
2023/03/18 01:15:15;;;;;;;;;;;;;;;;;;;;;
2023/03/18 01:19:15;;;;;;;;;;;;;;;;;;;;;
2023/03/18 01:23:49;;;;;;;22.80;12.60;;;;;;;2.44;53.74;100225.72;125683;1303;638546;-71
2023/03/18 01:27:52;;;;;;;23.00;12.80;;;;;;;2.40;53.69;100228.97;127379;1287;129538;-71
2023/03/18 01:31:54;;;;;;;23.40;12.80;;;;;;;2.38;53.96;100226.72;126699;1292;115294;-70
2023/03/18 01:35:54;;;;;;;26.10;12.40;;;;;;;2.36;53.97;100227.81;121911;1304;5408981;-70
2023/03/18 01:39:57;;;;;;;26.80;12.80;;;;;;;2.35;54.06;100224.64;124880;1314;114871;-69
2023/03/18 01:48:26;;;;;;;22.10;12.10;;;;;;;2.34;54.34;100221.16;126045;1298;636622;-71
2023/03/18 01:52:28;;;;;;;22.10;10.90;;;;;;;2.31;54.47;100222.80;128036;1280;128878;-70
2023/03/18 01:56:31;;;;;;;23.30;11.00;;;;;;;2.31;54.38;100225.61;128559;1281;115329;-72
2023/03/18 02:00:33;;;;;;;21.20;10.70;;;;;;;2.30;54.74;100224.02;123780;1283;5448190;-72
2023/03/18 02:04:35;;;;;;;19.00;9.70;;;;;;;2.31;54.58;100225.09;125778;1298;115044;-71
2023/03/18 02:12:56;;;;;;;20.20;9.80;;;;;;;2.37;54.56;100218.45;126648;1304;636389;-71
2023/03/18 02:17:02;;;;;;;22.40;10.30;;;;;;;2.36;54.32;100217.92;128858;1276;128810;-71
2023/03/18 02:21:15;;;;;;;17.50;9.50;;;;;;;2.37;54.56;100220.21;128918;1286;115373;-71
2023/03/18 02:25:08;;;;;;;;;;;;;;;;;;;;;
2023/03/18 02:29:12;;;;;;;18.70;9.70;;;;;;;2.35;54.46;100217.77;128575;1280;114798;-71
2023/03/18 02:33:16;;;;;;;20.00;10.40;;;;;;;2.35;54.64;100219.19;127361;1291;114912;-71
2023/03/18 02:37:20;;;;;;;16.50;9.00;;;;;;;2.35;54.55;100217.44;126201;1310;129733;-71
2023/03/18 02:41:25;;;;;;;21.60;11.10;;;;;;;2.34;54.52;100212.50;125680;1312;115240;-70
2023/03/18 02:45:23;;;;;;;;;;;;;;;;;;;;;
2023/03/18 02:53:53;;;;;;;19.60;12.00;;;;;;;2.42;54.37;100215.54;126441;1291;637913;-70
2023/03/18 02:57:56;;;;;;;21.70;11.80;;;;;;;2.42;54.45;100212.17;127812;1284;128250;-71
2023/03/18 03:01:58;;;;;;;18.40;10.90;;;;;;;2.43;54.40;100210.93;126219;1298;115214;-70
2023/03/18 03:05:59;;;;;;;17.90;10.40;;;;;;;2.47;54.61;100204.71;121294;1305;5472843;-70
2023/03/18 03:14:28;;;;;;;20.10;10.60;;;;;;;2.57;54.30;100201.16;126279;1297;638647;-70
2023/03/18 03:18:29;;;;;;;;;;;;;;;;;;;;;
2023/03/18 03:22:33;;;;;;;17.80;10.20;;;;;;;2.63;54.22;100210.05;126484;1293;115156;-70
2023/03/18 03:26:34;;;;;;;15.40;8.90;;;;;;;2.67;54.28;100206.98;121814;1305;5438917;-71
2023/03/18 03:30:36;;;;;;;16.10;8.80;;;;;;;2.69;54.15;100208.17;125021;1320;114949;-71
2023/03/18 03:34:37;;;;;;;13.80;7.60;;;;;;;2.75;53.76;100209.30;125115;1321;115038;-71
2023/03/18 03:43:06;;;;;;;14.90;8.50;;;;;;;2.95;53.56;100213.16;126320;1305;636791;-70
2023/03/18 03:47:08;;;;;;;11.50;7.30;;;;;;;3.03;53.33;100220.05;128318;1277;129110;-71
2023/03/18 03:51:13;;;;;;;11.80;7.90;;;;;;;3.12;53.34;100220.41;126687;1293;115487;-71
2023/03/18 03:55:14;;;;;;;15.00;7.30;;;;;;;3.18;53.33;100223.09;121919;1301;5449738;-69
2023/03/18 04:03:35;;;;;;;13.80;6.90;;;;;;;3.32;53.01;100218.59;126601;1295;636227;-71
2023/03/18 04:07:30;;;;;;;13.60;8.10;;;;;;;3.34;52.84;100222.96;128897;1286;127750;-71
2023/03/18 04:11:32;;;;;;;11.60;7.00;;;;;;;3.39;52.97;100219.70;128810;1275;115362;-70
2023/03/18 04:15:15;;;;;;;11.60;7.00;;;;;;;3.44;52.65;100217.98;124118;1284;5432008;-71
2023/03/18 04:19:18;;;;;;;14.00;8.40;;;;;;;3.51;52.47;100223.14;126725;1289;114775;-69
2023/03/18 04:23:09;;;;;;;13.30;8.10;;;;;;;3.56;52.41;100225.67;125636;1305;114849;-71
2023/03/18 04:27:10;;;;;;;14.20;7.80;;;;;;;3.58;52.32;100226.14;125513;1307;114976;-69
2023/03/18 04:35:34;;;;;;;13.50;7.90;;;;;;;3.63;52.23;100230.46;126681;1290;635812;-69
2023/03/18 04:39:26;;;;;;;13.00;8.40;;;;;;;3.58;52.42;100234.45;128863;1276;128053;-70
2023/03/18 04:43:29;;;;;;;14.80;8.80;;;;;;;3.55;52.46;100239.64;128113;1284;115427;-69
2023/03/18 04:47:33;;;;;;;;;;;;;;;;;;;;;
2023/03/18 04:51:36;;;;;;;11.00;6.90;;;;;;;3.49;52.35;100234.81;124981;1318;114841;-69
2023/03/18 05:00:10;;;;;;;10.70;6.80;;;;;;;3.57;52.31;100238.17;125437;1305;637259;-69
2023/03/18 05:04:10;;;;;;;10.50;6.30;;;;;;;3.60;52.10;100233.00;127497;1286;128867;-69
2023/03/18 05:08:14;;;;;;;12.80;6.90;;;;;;;3.65;52.21;100234.46;125943;1296;115455;-69
2023/03/18 05:12:14;;;;;;;11.30;6.50;;;;;;;3.69;52.01;100232.63;121767;1307;5487242;-70
2023/03/18 05:24:40;;;;;;;11.30;7.20;;;;;;;3.85;51.86;100238.27;128848;1274;127656;-71
2023/03/18 05:28:42;;;;;;;10.60;6.30;;;;;;;3.92;51.89;100239.17;128107;1292;115289;-70
2023/03/18 05:32:45;;;;;;;12.00;6.30;;;;;;;4.01;51.73;100237.36;123674;1300;5414179;-72
2023/03/18 05:36:45;;;;;;;;;;;;;;;;;;;;;
2023/03/18 05:40:47;;;;;;;16.00;6.20;;;;;;;4.25;51.66;100247.94;125440;1316;114888;-70
2023/03/18 05:49:14;;;;;;;10.30;5.70;;;;;;;4.57;51.39;100245.90;126492;1295;636006;-72
2023/03/18 05:53:07;;;;;;;;;;;;;;;;;;;;;
2023/03/18 05:57:09;;;;;;;11.80;6.20;;;;;;;4.84;50.72;100238.83;128471;1273;115267;-73
2023/03/18 06:01:12;;;;;;;9.70;6.00;;;;;;;4.97;50.88;100244.84;123407;1286;5447998;-72
2023/03/18 06:05:13;;;;;;;14.60;7.00;;;;;;;5.11;50.77;100248.73;126054;1301;114965;-71
2023/03/18 06:09:15;;;;;;;12.80;6.80;;;;;;;5.24;50.72;100248.91;125124;1309;114915;-71
2023/03/18 06:17:49;;;;;;;10.40;6.60;;;;;;;5.53;50.13;100247.36;125307;1301;638608;-71
2023/03/18 06:21:52;;;;;;;13.40;6.50;;;;;;;5.66;49.78;100251.94;128162;1299;128187;-72
2023/03/18 06:30:01;;;;;;;12.10;7.00;;;;;;;5.92;49.69;100248.48;122883;1292;5435331;-71
2023/03/18 06:33:58;;;;;;;11.50;6.60;;;;;;;6.05;49.28;100249.00;126255;1295;114961;-72
2023/03/18 06:38:00;;;;;;;9.30;6.10;;;;;;;6.20;49.32;100247.27;125685;1304;114936;-70
2023/03/18 06:42:00;;;;;;;10.40;6.30;;;;;;;6.38;49.06;100246.14;124085;1332;129793;-71
2023/03/18 06:50:28;;;;;;;10.90;6.10;;;;;;;6.92;48.58;100247.00;125961;1299;635917;-71
2023/03/18 06:54:30;;;;;;;10.10;5.70;;;;;;;7.25;48.27;100248.99;128220;1280;129229;-71
2023/03/18 06:58:34;;;;;;;13.10;6.70;;;;;;;7.61;48.42;100252.85;126897;1286;115220;-72
2023/03/18 07:02:35;;;;;;;11.10;6.30;;;;;;;7.94;48.05;100250.30;122003;1303;5430076;-71
2023/03/18 07:19:08;;;;;;;9.70;6.30;;;;;;;8.93;46.37;100257.13;127888;1303;114866;-71
2023/03/18 07:23:10;;;;;;;10.30;6.30;;;;;;;9.15;46.53;100256.73;123170;1287;5434445;-72
2023/03/18 07:31:02;;;;;;;13.70;6.20;;;;;;;9.61;45.91;100260.36;124908;1317;114873;-72
2023/03/18 07:35:04;;;;;;;12.70;6.40;;;;;;;9.79;45.80;100261.15;124472;1307;114908;-71
2023/03/18 07:43:26;;;;;;;9.80;5.90;;;;;;;10.17;44.91;100259.88;126486;1295;636473;-71
2023/03/18 07:47:26;;;;;;;;;;;;;;;;;;;;;
2023/03/18 07:51:14;;;;;;;13.70;6.00;;;;;;;10.34;44.03;100264.02;126787;1293;116229;-72
2023/03/18 07:55:13;;;;;;;;;;;;;;;;;;;;;
2023/03/18 07:59:11;;;;;;;;;;;;;;;;;;;;;
2023/03/18 08:03:04;;;;;;;;;;;;;;;;;;;;;
2023/03/18 08:07:07;;;;;;;11.30;6.20;;;;;;;11.05;43.01;100276.97;124528;1305;129962;-70
2023/03/18 08:15:25;;;;;;;;;;;;;;;;;;;;;
2023/03/18 08:19:29;;;;;;;16.30;6.80;;;;;;;11.75;41.66;100276.27;128081;1298;128813;-71
2023/03/18 08:23:13;;;;;;;10.20;5.80;;;;;;;11.98;41.83;100274.89;127650;1284;115269;-71
2023/03/18 08:30:43;;;;;;;8.30;5.20;;;;;;;12.31;41.37;100277.67;122121;1296;115057;-68
2023/03/18 08:34:10;;;;;;;;;;;;;;;;;;;;;
2023/03/18 08:38:09;;;;;;;;;;;;;;;;;;;;;
2023/03/18 08:41:55;;;;;;;;;;;;;;;;;;;;;
2023/03/18 08:45:39;;;;;;;9.60;5.50;;;;;;;12.83;40.26;100273.27;125183;1323;115067;-73
2023/03/18 08:49:24;;;;;;;10.60;5.40;;;;;;;12.90;40.03;100269.41;124614;1311;115253;-72
2023/03/18 08:52:48;;;;;;;11.20;6.50;;;;;;;12.99;40.42;100272.43;123491;1322;114889;-71
2023/03/18 08:56:30;;;;;;;13.70;6.80;;;;;;;13.08;40.12;100269.60;123552;1338;114906;-72
2023/03/18 08:59:55;;;;;;;9.70;7.60;;;;;;;13.13;40.01;100268.77;124005;1322;129842;-72
2023/03/18 09:03:21;;;;;;;;;;;;;;;;;;;;;
2023/03/18 09:06:51;;;;;;;9.90;5.70;;;;;;;13.25;39.84;100267.14;124888;1322;114922;-72
2023/03/18 09:10:53;;;;;;;16.00;6.60;;;;;;;13.37;39.47;100265.88;125725;1298;115024;-71
2023/03/18 09:14:53;;;;;;;;;;;;;;;;;;;;;
2023/03/18 09:18:54;;;;;;;7.60;4.70;;;;;;;13.48;39.02;100266.63;124794;1310;130066;-72
2023/03/18 09:27:16;;;;;;;10.70;5.60;;;;;;;13.79;38.44;100264.16;126365;1295;635966;-73
2023/03/18 09:31:05;;;;;;;;;;;;;;;;;;;;;
2023/03/18 09:35:01;;;;;;;;;;;;;;;;;;;;;
2023/03/18 09:43:32;;;;;;;10.50;5.70;;;;;;;14.38;37.58;100257.87;120835;1313;114990;-72
2023/03/18 09:47:39;;;;;;;9.60;5.40;;;;;;;14.54;37.38;100250.85;124078;1323;115014;-71
2023/03/18 09:51:17;;;;;;;6.80;4.30;;;;;;;14.70;37.15;100253.60;123989;1325;115039;-60
2023/03/18 09:55:20;;;;;;;11.20;4.80;;;;;;;14.78;36.46;100249.86;123993;1325;129507;-60
2023/03/18 09:59:42;;;;;;;;;;;;;;;;;;;;;
2023/03/18 10:03:56;;;;;;;7.00;4.10;;;;;;;14.90;35.88;100248.65;123953;1316;114970;-61
2023/03/18 10:07:27;;;;;;;;;;;;;;;;;;;;;
2023/03/18 10:10:57;;;;;;;8.70;4.10;;;;;;;14.94;34.08;100243.19;123946;1319;114923;-62
2023/03/18 10:14:36;;;;;;;9.30;4.80;;;;;;;14.95;34.21;100242.06;124788;1309;128957;-63
2023/03/18 10:17:55;;;;;;;6.90;4.20;;;;;;;14.98;33.26;100239.84;125615;1301;116433;-63
2023/03/18 10:21:19;;;;;;;9.80;4.70;;;;;;;14.95;33.36;100240.98;126772;1297;114780;-62
2023/03/18 10:25:28;;;;;;;10.50;3.80;;;;;;;14.90;33.44;100239.33;127770;1300;114926;-62
2023/03/18 10:29:26;;;;;;;;;;;;;;;;;;;;;
2023/03/18 10:33:43;;;;;;;7.90;4.50;;;;;;;14.94;33.24;100236.52;126201;1306;127468;-66
2023/03/18 10:37:59;;;;;;;;;;;;;;;;;;;;;
2023/03/18 10:41:29;;;;;;;10.10;4.50;;;;;;;14.71;33.35;100238.65;126084;1311;114881;-65
2023/03/18 10:45:02;;;;;;;13.40;5.20;;;;;;;14.64;33.38;100240.16;125818;1298;114967;-64
2023/03/18 10:48:27;;;;;;;7.70;4.90;;;;;;;14.64;33.60;100239.05;127311;1283;115281;-63
2023/03/18 10:52:24;;;;;;;9.90;5.40;;;;;;;14.65;34.15;100234.85;127327;1286;128438;-60
2023/03/18 10:55:55;;;;;;;8.30;5.50;;;;;;;14.66;34.16;100234.84;126387;1291;115218;-61
2023/03/18 10:59:43;;;;;;;10.10;5.30;;;;;;;14.58;34.42;100231.73;126095;1297;114908;-63
2023/03/18 11:03:46;;;;;;;6.60;5.10;;;;;;;14.61;34.74;100227.59;125446;1306;115966;-62
2023/03/18 11:07:25;;;;;;;9.50;5.30;;;;;;;14.67;34.71;100227.41;125983;1295;114919;-60
2023/03/18 11:11:27;;;;;;;8.80;5.30;;;;;;;14.75;34.30;100226.81;126042;1292;130438;-60
2023/03/18 11:15:10;;;;;;;9.40;5.10;;;;;;;14.82;34.98;100224.41;125533;1316;115356;-59
2023/03/18 11:18:37;;;;;;;7.20;4.90;;;;;;;15.01;35.11;100226.72;125502;1304;114967;-62
2023/03/18 11:22:12;;;;;;;8.30;4.60;;;;;;;15.14;33.59;100230.51;126021;1298;115000;-61
2023/03/18 11:26:02;;;;;;;6.50;4.10;;;;;;;15.14;33.86;100228.67;125961;1312;116576;-61
2023/03/18 11:29:36;;;;;;;5.90;3.90;;;;;;;15.19;33.91;100218.05;125612;1301;127941;-62
2023/03/18 11:33:26;;;;;;;10.60;4.60;;;;;;;15.25;33.80;100215.33;125895;1305;115304;-64
2023/03/18 11:36:39;;;;;;;9.20;5.00;;;;;;;15.19;33.40;100209.42;126580;1294;114903;-65
2023/03/18 11:39:53;;;;;;;11.30;5.20;;;;;;;15.16;33.56;100210.39;127193;1290;114754;-60
2023/03/18 11:43:40;;;;;;;8.60;4.50;;;;;;;15.12;33.23;100206.32;128010;1289;115334;-63
2023/03/18 11:47:35;;;;;;;8.40;5.60;;;;;;;15.09;33.51;100205.11;128491;1274;128717;-60
2023/03/18 11:51:07;;;;;;;9.60;5.70;;;;;;;15.11;33.83;100199.77;128851;1271;115440;-59
2023/03/18 11:54:30;;;;;;;9.80;5.70;;;;;;;15.07;33.28;100204.15;128466;1295;114904;-65
2023/03/18 11:57:52;;;;;;;9.00;5.20;;;;;;;15.01;32.91;100201.52;128447;1287;115253;-61
2023/03/18 12:01:22;;;;;;;10.30;5.80;;;;;;;14.90;32.97;100196.55;128175;1295;114888;-63
2023/03/18 12:05:09;;;;;;;8.50;6.00;;;;;;;14.84;32.95;100194.96;128947;1283;128795;-60
2023/03/18 12:08:45;;;;;;;8.60;5.80;;;;;;;14.82;33.50;100188.42;129457;1264;115237;-61
2023/03/18 12:11:59;;;;;;;8.20;5.20;;;;;;;14.81;32.98;100183.86;129020;1270;114913;-59
2023/03/18 12:15:37;;;;;;;12.20;6.50;;;;;;;14.78;33.16;100188.36;128988;1268;114917;-61
2023/03/18 12:19:12;;;;;;;12.00;7.50;;;;;;;14.77;33.34;100186.45;128470;1279;114813;-59
2023/03/18 12:22:46;;;;;;;9.20;6.70;;;;;;;14.78;33.68;100192.67;128205;1288;128844;-62
2023/03/18 12:26:50;;;;;;;10.80;6.80;;;;;;;14.80;33.79;100193.28;128232;1280;115307;-62
2023/03/18 12:30:14;;;;;;;8.40;5.60;;;;;;;14.81;33.72;100194.27;127578;1296;114955;-66
2023/03/18 12:33:55;;;;;;;8.00;5.70;;;;;;;14.79;33.38;100198.70;128040;1288;114836;-61
2023/03/18 12:37:32;;;;;;;7.90;5.10;;;;;;;14.74;33.06;100195.96;127919;1291;114858;-63
2023/03/18 12:41:05;;;;;;;8.60;6.00;;;;;;;14.71;33.30;100197.83;127747;1291;128789;-61
2023/03/18 12:44:59;;;;;;;9.10;5.50;;;;;;;14.67;33.37;100197.90;127819;1284;115323;-60
2023/03/18 12:48:48;;;;;;;9.20;6.40;;;;;;;14.64;33.29;100197.71;128003;1281;114791;-62
2023/03/18 12:52:17;;;;;;;8.80;6.60;;;;;;;14.65;33.66;100196.23;127766;1293;114938;-61
2023/03/18 12:56:04;;;;;;;8.90;5.20;;;;;;;14.68;33.48;100197.81;127765;1284;114884;-62
2023/03/18 12:59:17;;;;;;;9.40;5.50;;;;;;;14.70;33.74;100193.21;127475;1290;129595;-62
2023/03/18 13:03:25;;;;;;;10.20;5.90;;;;;;;14.74;33.49;100199.23;128217;1274;114837;-62
2023/03/18 13:06:53;;;;;;;7.60;5.10;;;;;;;14.80;33.64;100195.25;127533;1302;114957;-64
2023/03/18 13:10:32;;;;;;;10.20;5.80;;;;;;;14.79;33.18;100197.27;127687;1274;115010;-61
2023/03/18 13:13:50;;;;;;;13.20;6.60;;;;;;;14.80;33.64;100193.29;128366;1283;115264;-64
2023/03/18 13:17:12;;;;;;;9.20;6.10;;;;;;;14.83;33.77;100193.97;128390;1293;128781;-62
2023/03/18 13:20:34;;;;;;;8.70;6.40;;;;;;;14.85;33.57;100194.15;128556;1276;115369;-64
2023/03/18 13:24:22;;;;;;;11.20;6.00;;;;;;;14.86;33.47;100193.02;128482;1293;114862;-64
2023/03/18 13:28:09;;;;;;;;;;;;;;;;;;;;;
2023/03/18 13:31:36;;;;;;;9.20;6.30;;;;;;;14.89;33.18;100190.64;128901;1269;114923;-62
2023/03/18 13:35:11;;;;;;;11.30;6.60;;;;;;;14.93;33.53;100189.45;129433;1264;128795;-65
2023/03/18 13:38:48;;;;;;;11.00;5.80;;;;;;;14.92;33.02;100192.64;129385;1264;115254;-61
2023/03/18 13:42:09;;;;;;;15.20;6.40;;;;;;;14.87;33.40;100191.71;129018;1270;114751;-62
2023/03/18 13:45:30;;;;;;;12.40;7.00;;;;;;;14.88;33.48;100187.34;129226;1267;114817;-62
2023/03/18 13:48:37;;;;;;;10.30;6.10;;;;;;;14.90;33.70;100187.72;129420;1264;115045;-64
2023/03/18 13:51:58;;;;;;;12.20;7.30;;;;;;;14.86;33.44;100188.84;129318;1280;128619;-60
2023/03/18 13:55:12;;;;;;;13.00;7.30;;;;;;;14.84;33.68;100185.63;129471;1264;115337;-60
2023/03/18 13:58:26;;;;;;;13.70;6.50;;;;;;;14.82;33.76;100182.52;129414;1266;114891;-64
2023/03/18 14:01:48;;;;;;;8.40;6.70;;;;;;;14.81;33.87;100177.58;131232;1260;114778;-64
2023/03/18 14:04:52;;;;;;;9.40;6.10;;;;;;;14.79;33.86;100179.85;129444;1283;114858;-66
2023/03/18 14:07:54;;;;;;;10.10;6.70;;;;;;;14.76;33.63;100177.87;129401;1283;128716;-64
2023/03/18 14:11:27;;;;;;;11.20;6.80;;;;;;;14.73;33.85;100174.46;129407;1283;114930;-66
2023/03/18 14:14:56;;;;;;;12.00;8.00;;;;;;;14.71;34.07;100175.02;129457;1280;114901;-64
2023/03/18 14:18:27;;;;;;;11.90;7.20;;;;;;;14.69;34.47;100167.19;129459;1277;114890;-65
2023/03/18 14:21:52;;;;;;;12.50;6.50;;;;;;;14.66;33.91;100163.27;129850;1258;114843;-65
2023/03/18 14:25:57;;;;;;;;;;;;;;;;;;;;;
2023/03/18 14:29:33;;;;;;;14.60;8.10;;;;;;;14.57;34.59;100170.33;130365;1260;115253;-63
2023/03/18 14:32:59;;;;;;;11.90;6.70;;;;;;;14.54;34.62;100166.23;129957;1260;115189;-63
2023/03/18 14:36:32;;;;;;;;;;;;;;;;;;;;;
2023/03/18 14:40:09;;;;;;;;;;;;;;;;;;;;;
2023/03/18 14:43:53;;;;;;;12.00;7.10;;;;;;;14.38;34.72;100160.46;129354;1281;128551;-64
2023/03/18 14:46:58;;;;;;;;;;;;;;;14.33;34.62;100159.58;129514;1280;114864;-63
2023/03/18 14:50:38;;;;;;;12.60;7.10;;;;;;;14.27;34.60;100157.62;129718;1279;114900;-64
2023/03/18 14:54:09;;;;;;;12.80;7.80;;;;;;;14.22;34.81;100150.05;129583;1280;114875;-63
2023/03/18 14:57:13;;;;;;;21.60;13.30;;;;;;;14.19;34.96;100148.27;129511;1263;114775;-63
2023/03/18 15:00:17;;;;;;;13.80;8.70;;;;;;;14.18;35.33;100151.93;130341;1256;114821;-63
2023/03/18 15:03:26;;;;;;;11.10;7.40;;;;;;;14.17;35.26;100154.73;129572;1280;114894;-64
2023/03/18 15:06:57;;;;;;;;;;;;;;;;;;;;;
2023/03/18 15:10:09;;;;;;;13.90;7.80;;;;;;;14.11;35.36;100162.98;129795;1275;115109;-64
2023/03/18 15:14:01;;;;;;;10.70;7.40;;;;;;;14.07;35.55;100161.83;130258;1275;114693;-63
2023/03/18 15:17:23;;;;;;;14.70;7.40;;;;;;;14.00;35.47;100162.98;129677;1275;128955;-63
2023/03/18 15:20:45;;;;;;;;;;;;;;;;;;;;;
2023/03/18 15:24:28;;;;;;;12.90;8.00;;;;;;;13.87;35.58;100159.39;130107;1273;114734;-62
2023/03/18 15:28:04;;;;;;;13.20;7.80;;;;;;;13.80;35.68;100157.99;129625;1276;114785;-63
2023/03/18 15:31:54;;;;;;;11.00;7.00;;;;;;;13.76;35.71;100158.47;128838;1257;114287;-62
2023/03/18 15:35:23;;;;;;;15.60;6.80;;;;;;;13.72;35.85;100164.66;127348;1267;127836;-61
2023/03/18 15:38:46;;;;;;;17.30;8.00;;;;;;;13.70;35.84;100167.67;127496;1270;114785;-64
2023/03/18 15:42:14;;;;;;;15.70;7.90;;;;;;;13.69;35.89;100174.34;127663;1267;115078;-62
2023/03/18 15:45:26;;;;;;;12.50;6.90;;;;;;;13.69;36.12;100170.39;127781;1271;114774;-62
2023/03/18 15:49:11;;;;;;;13.90;9.50;;;;;;;13.69;36.08;100166.63;127403;1267;114727;-62
2023/03/18 15:52:24;;;;;;;15.50;7.50;;;;;;;13.68;36.24;100169.04;126962;1273;127686;-62
2023/03/18 15:55:43;;;;;;;14.20;8.50;;;;;;;13.64;36.28;100163.17;127063;1277;114980;-62
2023/03/18 15:59:33;;;;;;;10.70;7.00;;;;;;;13.59;36.36;100165.30;127726;1274;113987;-62
2023/03/18 16:03:24;;;;;;;;;;;;;;;;;;;;;
2023/03/18 16:11:49;;;;;;;13.30;7.90;;;;;;;13.32;36.82;100176.65;124835;1294;128578;-62
2023/03/18 16:16:13;;;;;;;;;;;;;;;;;;;;;
2023/03/18 16:19:15;;;;;;;15.40;8.30;;;;;;;13.11;37.25;100185.53;123479;1262;6072130;-62
2023/03/18 16:23:04;;;;;;;15.00;8.20;;;;;;;13.02;37.10;100186.96;128268;1260;114690;-61
2023/03/18 16:26:43;;;;;;;17.20;8.70;;;;;;;12.90;37.30;100185.50;128475;1260;114712;-62
2023/03/18 16:30:27;;;;;;;19.70;9.60;;;;;;;12.81;37.44;100189.80;128523;1256;114860;-62
2023/03/18 16:34:15;;;;;;;14.90;9.40;;;;;;;12.71;37.71;100187.75;128334;1261;127648;-65
2023/03/18 16:37:59;;;;;;;20.60;10.70;;;;;;;12.64;37.79;100189.59;128207;1261;114706;-66
2023/03/18 16:41:34;;;;;;;;;;;;;;;;;;;;;
2023/03/18 16:45:15;;;;;;;;;;;;;;;;;;;;;
2023/03/18 17:14:22;;;;;;;23.30;12.10;;;;;;;11.43;39.96;100217.39;128849;1282;128188;-67
2023/03/18 17:31:15;;;;;;;25.90;15.10;;;;;;;10.89;40.84;100229.52;127768;1289;114609;-67
2023/03/18 17:34:37;;;;;;;25.00;13.50;;;;;;;10.76;41.16;100230.34;128874;1291;127683;-68
2023/03/18 17:43:05;;;;;;;;;;;;;;;;;;;;;
2023/03/18 18:05:25;;;;;;;32.80;16.40;;;;;;;9.96;42.83;100249.27;125420;1289;114859;-67
2023/03/18 18:14:05;;;;;;;58.90;31.00;;;;;;;9.77;42.81;100248.56;124916;1292;114610;-66
2023/03/18 18:26:18;;;;;;;39.40;20.30;;;;;;;9.51;43.57;100246.55;125064;1295;114341;-66
2023/03/18 18:30:07;;;;;;;36.20;20.00;;;;;;;9.45;43.61;100248.44;125121;1289;114850;-66
2023/03/18 18:34:00;;;;;;;;;;;;;;;;;;;;;
2023/03/18 18:37:58;;;;;;;41.70;21.60;;;;;;;9.28;43.89;100253.80;125938;1285;127944;-66
2023/03/18 19:00:48;;;;;;;46.30;24.40;;;;;;;8.83;44.62;100263.98;125925;1285;128724;-67
2023/03/18 19:08:56;;;;;;;;;;;;;;;;;;;;;
2023/03/18 19:12:53;;;;;;;;;;;;;;;;;;;;;
2023/03/18 19:30:01;;;;;;;;;;;;;;;;;;;;;
2023/03/18 19:33:59;;;;;;;56.70;28.70;;;;;;;8.04;46.11;100267.36;127686;1266;128707;-68
2023/03/18 19:51:58;;;;;;;53.40;25.50;;;;;;;7.58;46.38;100264.33;126247;1283;114363;-67
2023/03/18 20:00:11;;;;;;;52.30;26.40;;;;;;;7.30;46.58;100275.65;125363;1295;114820;-65
2023/03/18 20:03:59;;;;;;;;;;;;;;;;;;;;;
2023/03/18 20:07:39;;;;;;;;;;;;;;;;;;;;;
2023/03/18 20:25:34;;;;;;;53.30;26.90;;;;;;;6.55;47.93;100271.49;124049;1305;128387;-69
2023/03/18 20:29:02;;;;;;;38.50;20.20;;;;;;;6.42;48.28;100268.76;125156;1289;114930;-68
2023/03/18 20:32:54;;;;;;;51.10;24.80;;;;;;;6.31;48.39;100271.38;125633;1289;114830;-68
2023/03/18 20:41:20;;;;;;;50.40;24.20;;;;;;;6.11;48.78;100268.30;125901;1283;114658;-70
2023/03/18 20:45:01;;;;;;;54.30;24.70;;;;;;;6.02;49.16;100260.42;128426;1284;128878;-67
2023/03/18 20:49:11;;;;;;;49.20;24.70;;;;;;;5.93;49.32;100259.45;125929;1285;114330;-67
2023/03/18 21:06:54;;;;;;;39.80;20.70;;;;;;;5.59;50.31;100261.89;126426;1277;128515;-67
2023/03/18 21:31:58;;;;;;;30.90;18.50;;;;;;;5.15;51.14;100265.59;125512;1306;114351;-68
2023/03/18 21:35:56;;;;;;;;;;;;;;;;;;;;;
2023/03/18 21:52:59;;;;;;;38.00;19.10;;;;;;;4.92;52.13;100253.14;125469;1289;115037;-66
2023/03/18 22:01:11;;;;;;;37.10;19.80;;;;;;;4.77;52.31;100258.14;124726;1298;115512;-66
2023/03/18 22:04:59;;;;;;;;;;;;;;;;;;;;;
2023/03/18 22:12:57;;;;;;;;;;;;;;;;;;;;;
2023/03/18 22:16:42;;;;;;;65.50;33.90;;;;;;;4.49;53.15;100263.28;124257;1299;115687;-65
2023/03/18 22:20:19;;;;;;;75.90;37.40;;;;;;;4.42;53.10;100258.67;127332;1297;114949;-67
2023/03/18 22:23:56;;;;;;;51.20;27.20;;;;;;;4.35;53.25;100258.84;127356;1289;113541;-66
2023/03/18 22:27:01;;;;;;;51.60;26.90;;;;;;;4.28;53.47;100265.55;128271;1286;127715;-66
2023/03/18 22:57:01;;;;;;;37.40;21.90;;;;;;;3.76;55.05;100281.93;127082;1280;114622;-68
2023/03/18 23:31:39;;;;;;;33.10;16.70;;;;;;;3.48;56.44;100284.11;125438;1289;129931;-66
2023/03/18 23:40:14;;;;;;;34.40;18.20;;;;;;;3.48;56.60;100292.41;123931;1302;115719;-66
